createdAt,value
2019-05-10T00:01:13.556Z,5.97
2019-05-10T00:04:01.186Z,5.90
2019-05-10T00:06:48.865Z,5.83
2019-05-10T00:09:18.181Z,5.50
2019-05-10T00:12:05.956Z,6.27
2019-05-10T00:15:00.905Z,6.60
2019-05-10T00:17:31.047Z,6.13
2019-05-10T00:20:01.145Z,6.10
2019-05-10T00:22:33.784Z,6.50
2019-05-10T00:25:05.157Z,6.43
2019-05-10T00:27:35.755Z,5.90
2019-05-10T00:30:06.360Z,5.73
2019-05-10T00:32:36.461Z,6.33
2019-05-10T00:35:06.751Z,6.60
2019-05-10T00:37:36.912Z,6.17
2019-05-10T00:40:07.443Z,6.37
2019-05-10T00:42:37.542Z,6.20
2019-05-10T00:45:08.000Z,6.10
2019-05-10T00:47:38.055Z,6.30
2019-05-10T00:50:08.912Z,6.17
2019-05-10T00:52:39.018Z,6.43
2019-05-10T00:55:18.339Z,6.30
2019-05-10T00:57:41.271Z,6.60
2019-05-10T01:00:11.662Z,6.57
2019-05-10T01:02:41.773Z,6.60
2019-05-10T01:05:14.687Z,6.87
2019-05-10T01:07:44.769Z,6.20
2019-05-10T01:10:17.440Z,6.87
2019-05-10T01:12:47.725Z,6.70
2019-05-10T01:15:18.009Z,7.03
2019-05-10T01:17:50.362Z,6.20
2019-05-10T01:20:20.472Z,6.50
2019-05-10T01:22:50.507Z,6.70
2019-05-10T01:25:34.116Z,7.47
2019-05-10T01:27:52.270Z,6.97
2019-05-10T01:30:22.531Z,6.60
2019-05-10T01:32:52.756Z,7.30
2019-05-10T01:35:22.986Z,6.90
2019-05-10T01:37:53.000Z,7.30
2019-05-10T01:40:23.159Z,7.37
2019-05-10T01:42:53.197Z,7.33
2019-05-10T01:45:23.271Z,7.50
2019-05-10T01:47:53.285Z,6.80
2019-05-10T01:50:23.357Z,7.37
2019-05-10T01:52:53.530Z,7.63
2019-05-10T01:55:23.578Z,7.40
2019-05-10T01:57:53.615Z,7.53
2019-05-10T02:00:24.033Z,7.40
2019-05-10T02:02:54.060Z,7.23
2019-05-10T02:05:24.107Z,7.90
2019-05-10T02:07:54.474Z,7.77
2019-05-10T02:10:24.530Z,8.03
2019-05-10T02:12:54.600Z,8.40
2019-05-10T02:15:24.765Z,8.27
2019-05-10T02:17:54.802Z,8.50
2019-05-10T02:20:24.881Z,9.00
2019-05-10T02:22:54.990Z,9.43
2019-05-10T02:25:25.107Z,9.77
2019-05-10T02:27:55.289Z,9.87
2019-05-10T02:30:44.424Z,9.33
2019-05-10T02:33:14.464Z,10.13
2019-05-10T02:35:44.619Z,10.73
2019-05-10T02:38:14.693Z,10.33
2019-05-10T02:40:45.450Z,10.43
2019-05-10T02:43:15.557Z,11.07
2019-05-10T02:45:46.055Z,11.10
2019-05-10T02:48:16.125Z,11.40
2019-05-10T02:50:47.875Z,12.10
2019-05-10T02:53:18.298Z,12.20
2019-05-10T02:55:49.470Z,11.93
2019-05-10T02:58:19.721Z,11.83
2019-05-10T03:00:51.832Z,12.53
2019-05-10T03:03:24.665Z,12.27
2019-05-10T03:05:56.272Z,13.27
2019-05-10T03:08:27.817Z,13.53
2019-05-10T03:11:00.112Z,13.60
2019-05-10T03:13:31.161Z,13.77
2019-05-10T03:16:05.124Z,14.00
2019-05-10T03:18:35.442Z,13.90
2019-05-10T03:21:11.826Z,14.90
2019-05-10T03:23:42.050Z,15.93
2019-05-10T03:26:12.546Z,16.83
2019-05-10T03:28:44.555Z,17.10
2019-05-10T03:31:14.956Z,17.70
2019-05-10T03:33:45.093Z,18.13
2019-05-10T03:36:34.184Z,20.13
2019-05-10T03:39:08.137Z,19.03
2019-05-10T03:41:38.244Z,18.10
2019-05-10T03:44:08.419Z,19.57
2019-05-10T03:46:38.567Z,19.67
2019-05-10T03:49:08.688Z,20.83
2019-05-10T03:51:38.750Z,21.43
2019-05-10T03:54:08.866Z,21.70
2019-05-10T03:56:41.261Z,23.20
2019-05-10T03:59:11.373Z,22.93
2019-05-10T04:01:41.501Z,24.33
2019-05-10T04:04:11.612Z,24.00
2019-05-10T04:06:41.686Z,24.43
2019-05-10T04:09:11.805Z,23.37
2019-05-10T04:11:42.264Z,24.63
2019-05-10T04:14:12.368Z,25.53
2019-05-10T04:16:42.598Z,23.40
2019-05-10T04:19:12.636Z,24.73
2019-05-10T04:21:44.237Z,23.20
2019-05-10T04:24:14.381Z,22.67
2019-05-10T04:26:44.481Z,21.00
2019-05-10T04:29:14.590Z,21.60
2019-05-10T04:31:44.734Z,21.77
2019-05-10T04:34:14.811Z,21.93
2019-05-10T04:36:45.094Z,21.90
2019-05-10T04:39:15.294Z,22.70
2019-05-10T04:41:45.379Z,21.30
2019-05-10T04:44:15.530Z,21.47
2019-05-10T04:46:45.729Z,24.00
2019-05-10T04:49:15.871Z,23.23
2019-05-10T04:51:46.256Z,23.43
2019-05-10T04:54:16.300Z,22.17
2019-05-10T04:56:47.158Z,23.90
2019-05-10T04:59:17.295Z,24.43
2019-05-10T05:01:48.195Z,23.83
2019-05-10T05:04:18.322Z,24.90
2019-05-10T05:06:48.429Z,23.73
2019-05-10T05:09:21.661Z,22.03
2019-05-10T05:11:51.845Z,22.03
2019-05-10T05:14:21.921Z,21.53
2019-05-10T05:16:52.056Z,20.83
2019-05-10T05:19:22.127Z,17.67
2019-05-10T05:21:52.352Z,17.83
2019-05-10T05:24:24.346Z,17.80
2019-05-10T05:26:54.554Z,16.80
2019-05-10T05:29:24.680Z,17.60
2019-05-10T05:32:01.435Z,15.30
2019-05-10T05:34:28.296Z,15.20
2019-05-10T05:36:58.641Z,14.20
2019-05-10T05:39:28.698Z,13.53
2019-05-10T05:41:58.961Z,13.23
2019-05-10T05:44:29.092Z,12.03
2019-05-10T05:46:59.188Z,13.00
2019-05-10T05:49:29.263Z,12.57
2019-05-10T05:51:59.788Z,12.57
2019-05-10T05:54:31.856Z,13.70
2019-05-10T05:57:02.004Z,13.43
2019-05-10T05:59:32.113Z,14.17
2019-05-10T06:02:07.634Z,13.00
2019-05-10T06:04:34.030Z,13.57
2019-05-10T06:07:04.188Z,12.90
2019-05-10T06:09:37.960Z,13.13
2019-05-10T06:12:07.521Z,12.40
2019-05-10T06:14:43.358Z,12.23
2019-05-10T06:17:09.759Z,13.63
2019-05-10T06:19:39.889Z,15.37
2019-05-10T06:22:09.964Z,16.13
2019-05-10T06:24:40.142Z,18.63
2019-05-10T06:27:10.363Z,18.60
2019-05-10T06:29:43.031Z,19.47
2019-05-10T06:32:12.231Z,19.43
2019-05-10T06:34:42.460Z,19.80
2019-05-10T06:37:13.399Z,19.80
2019-05-10T06:39:43.558Z,19.83
2019-05-10T06:42:13.640Z,20.53
2019-05-10T06:44:43.766Z,20.43
2019-05-10T06:47:13.826Z,23.13
2019-05-10T06:49:50.618Z,21.40
2019-05-10T06:52:16.391Z,22.40
2019-05-10T06:54:46.854Z,22.73
2019-05-10T06:57:17.954Z,20.07
2019-05-10T06:59:48.824Z,19.93
2019-05-10T07:02:20.097Z,19.07
2019-05-10T07:04:51.050Z,21.53
2019-05-10T07:07:42.616Z,19.60
2019-05-10T07:10:09.972Z,20.97
2019-05-10T07:12:25.264Z,20.50
2019-05-10T07:14:57.891Z,20.57
2019-05-10T07:17:27.300Z,20.13
2019-05-10T07:19:57.448Z,20.33
2019-05-10T07:22:29.055Z,19.53
2019-05-10T07:25:04.396Z,19.23
2019-05-10T07:27:36.744Z,18.00
2019-05-10T07:30:03.443Z,19.07
2019-05-10T07:32:33.818Z,18.60
2019-05-10T07:35:04.359Z,19.57
2019-05-10T07:37:34.701Z,19.10
2019-05-10T07:40:05.918Z,18.37
2019-05-10T07:42:39.738Z,18.60
2019-05-10T07:45:08.060Z,18.97
2019-05-10T07:47:38.123Z,18.23
2019-05-10T07:50:09.471Z,19.13
2019-05-10T07:52:43.339Z,17.33
2019-05-10T07:55:12.264Z,19.10
2019-05-10T07:57:42.477Z,18.57
2019-05-10T08:00:13.055Z,18.77
2019-05-10T08:02:44.437Z,17.57
2019-05-10T08:05:15.523Z,16.77
2019-05-10T08:07:45.858Z,17.70
2019-05-10T08:10:16.187Z,17.53
2019-05-10T08:12:48.293Z,17.60
2019-05-10T08:15:19.534Z,17.20
2019-05-10T08:17:50.991Z,16.00
2019-05-10T08:20:38.113Z,15.23
2019-05-10T08:22:54.164Z,14.83
2019-05-10T08:25:29.061Z,14.83
2019-05-10T08:27:56.089Z,14.63
2019-05-10T08:30:42.506Z,14.27
2019-05-10T08:33:13.500Z,12.97
2019-05-10T08:35:45.945Z,12.70
2019-05-10T08:38:13.783Z,11.73
2019-05-10T08:40:43.908Z,11.93
2019-05-10T08:43:16.850Z,12.50
2019-05-10T08:45:49.439Z,11.50
2019-05-10T08:48:17.798Z,11.27
2019-05-10T08:50:54.328Z,11.07
2019-05-10T08:53:19.726Z,10.23
2019-05-10T08:55:52.295Z,10.60
2019-05-10T08:58:31.561Z,11.60
2019-05-10T09:01:11.104Z,10.97
2019-05-10T09:03:25.597Z,11.90
2019-05-10T09:05:55.687Z,11.20
2019-05-10T09:08:29.626Z,10.50
2019-05-10T09:10:57.579Z,11.40
2019-05-10T09:13:28.672Z,11.23
2019-05-10T09:16:02.235Z,12.23
2019-05-10T09:18:33.101Z,11.10
2019-05-10T09:21:08.742Z,10.63
2019-05-10T09:23:37.227Z,9.77
2019-05-10T09:26:10.452Z,9.20
2019-05-10T09:28:39.165Z,9.30
2019-05-10T09:31:18.648Z,10.00
2019-05-10T09:33:49.228Z,9.97
2019-05-10T09:36:15.022Z,4.67
2019-05-10T09:38:46.296Z,3.80
2019-05-10T09:41:18.669Z,3.30
2019-05-10T09:43:50.540Z,3.40
2019-05-10T09:46:22.849Z,3.00
2019-05-10T09:48:54.559Z,2.70
2019-05-10T09:51:28.685Z,2.60
2019-05-10T09:53:57.637Z,2.80
2019-05-10T09:56:32.843Z,3.03
2019-05-10T09:59:02.560Z,2.40
2019-05-10T10:01:32.839Z,2.20
2019-05-10T10:04:04.736Z,2.90
2019-05-10T10:06:36.779Z,2.57
2019-05-10T10:09:10.817Z,2.50
2019-05-10T10:11:40.371Z,2.70
2019-05-10T10:14:10.704Z,3.13
2019-05-10T10:16:40.794Z,3.30
2019-05-10T10:19:10.869Z,3.20
2019-05-10T10:21:40.975Z,3.50
2019-05-10T10:24:15.510Z,5.00
2019-05-10T10:26:42.963Z,4.70
2019-05-10T10:29:13.106Z,5.00
2019-05-10T10:31:51.379Z,5.70
2019-05-10T10:34:17.249Z,5.33
2019-05-10T10:36:47.646Z,4.30
2019-05-10T10:39:22.844Z,3.80
2019-05-10T10:41:52.115Z,4.93
2019-05-10T10:44:21.351Z,5.83
2019-05-10T10:46:51.476Z,5.80
2019-05-10T10:49:23.208Z,5.57
2019-05-10T10:51:53.556Z,5.60
2019-05-10T10:54:27.956Z,6.50
2019-05-10T10:56:59.184Z,6.70
2019-05-10T10:59:27.451Z,6.20
2019-05-10T11:02:27.501Z,5.63
2019-05-10T11:04:29.271Z,6.27
2019-05-10T11:07:10.238Z,8.27
2019-05-10T11:09:44.543Z,6.50
2019-05-10T11:12:21.045Z,7.47
2019-05-10T11:14:48.023Z,8.00
2019-05-10T11:17:18.101Z,8.90
2019-05-10T11:19:48.246Z,9.57
2019-05-10T11:22:18.296Z,8.77
2019-05-10T11:24:51.736Z,8.97
2019-05-10T11:27:20.451Z,8.93
2019-05-10T11:29:54.884Z,9.27
2019-05-10T11:32:22.702Z,9.20
2019-05-10T11:34:52.856Z,8.80
2019-05-10T11:37:30.911Z,7.63
2019-05-10T11:39:55.127Z,8.20
2019-05-10T11:42:28.119Z,9.17
2019-05-10T11:44:57.660Z,8.23
2019-05-10T11:47:27.936Z,7.80
2019-05-10T11:50:10.649Z,10.10
2019-05-10T11:52:41.019Z,9.70
2019-05-10T11:55:12.386Z,10.37
2019-05-10T11:57:44.548Z,8.70
2019-05-10T12:05:26.424Z,6.50
2019-05-10T12:07:54.867Z,6.37
2019-05-10T12:10:25.921Z,6.63
2019-05-10T12:13:08.736Z,6.80
2019-05-10T12:15:31.477Z,9.50
2019-05-10T12:18:04.306Z,8.67
2019-05-10T12:23:03.755Z,8.97
2019-05-10T12:26:05.557Z,8.40
2019-05-10T12:26:18.021Z,7.30
2019-05-10T12:26:20.084Z,9.40
2019-05-10T12:26:49.078Z,8.07
2019-05-10T12:28:06.521Z,8.37
2019-05-10T12:30:37.258Z,8.27
2019-05-10T12:33:09.859Z,8.97
2019-05-10T12:35:44.544Z,9.80
2019-05-10T12:38:11.361Z,9.70
2019-05-10T12:40:45.473Z,9.20
2019-05-10T12:43:13.340Z,9.53
2019-05-10T12:45:43.513Z,9.63
2019-05-10T12:48:15.514Z,9.90
2019-05-10T12:50:45.840Z,10.60
2019-05-10T12:53:18.566Z,10.33
2019-05-10T12:55:48.262Z,10.67
2019-05-10T12:58:18.459Z,10.27
2019-05-10T13:00:52.706Z,9.87
2019-05-10T13:03:25.141Z,11.23
2019-05-10T13:05:53.365Z,11.80
2019-05-10T13:08:23.830Z,10.90
2019-05-10T13:10:53.964Z,11.57
2019-05-10T13:13:29.402Z,12.03
2019-05-10T13:15:56.276Z,12.57
2019-05-10T13:18:48.194Z,12.47
2019-05-10T13:20:58.092Z,13.60
2019-05-10T13:23:28.141Z,13.57
2019-05-10T13:25:58.329Z,12.63
2019-05-10T13:28:28.501Z,12.80
2019-05-10T13:30:59.775Z,11.33
2019-05-10T13:33:40.673Z,12.47
2019-05-10T13:36:02.234Z,12.87
2019-05-10T13:38:37.032Z,12.33
2019-05-10T13:41:06.682Z,12.43
2019-05-10T13:43:36.888Z,12.27
2019-05-10T13:46:07.010Z,12.37
2019-05-10T13:48:37.065Z,12.30
2019-05-10T13:51:07.225Z,13.07
2019-05-10T13:53:37.346Z,12.53
2019-05-10T13:56:07.418Z,12.50
2019-05-10T13:58:37.642Z,11.97
2019-05-10T14:01:13.174Z,11.37
2019-05-10T14:03:45.205Z,10.63
2019-05-10T14:06:11.350Z,11.27
2019-05-10T14:08:42.760Z,11.87
2019-05-10T14:11:15.169Z,12.37
2019-05-10T14:13:45.215Z,10.47
2019-05-10T14:16:19.591Z,11.20
2019-05-10T14:18:47.078Z,10.90
2019-05-10T14:21:17.313Z,10.30
2019-05-10T14:23:47.516Z,10.63
2019-05-10T14:26:18.288Z,9.63
2019-05-10T14:28:53.127Z,10.20
2019-05-10T14:31:21.016Z,9.70
2019-05-10T14:34:14.123Z,9.40
2019-05-10T14:36:22.986Z,10.37
2019-05-10T14:38:54.170Z,9.40
2019-05-10T14:41:24.806Z,9.83
2019-05-10T14:43:56.723Z,10.07
2019-05-10T14:46:26.827Z,9.53
2019-05-10T14:48:57.209Z,8.90
2019-05-10T14:51:44.159Z,8.90
2019-05-10T14:54:06.818Z,9.27
2019-05-10T14:56:30.857Z,10.60
2019-05-10T14:59:00.998Z,9.70
2019-05-10T15:01:36.994Z,9.97
2019-05-10T15:04:03.933Z,9.57
2019-05-10T15:06:37.018Z,9.40
2019-05-10T15:09:20.454Z,10.37
2019-05-10T15:11:40.491Z,9.93
2019-05-10T15:14:10.656Z,9.67
2019-05-10T15:16:41.195Z,10.77
2019-05-10T15:19:11.334Z,9.40
2019-05-10T15:21:41.600Z,9.47
2019-05-10T15:24:11.927Z,9.80
2019-05-10T15:26:43.729Z,8.97
2019-05-10T15:29:14.974Z,9.50
2019-05-10T15:31:47.550Z,8.13
2019-05-10T15:34:17.964Z,8.90
2019-05-10T15:36:48.268Z,8.90
2019-05-10T15:39:23.109Z,8.57
2019-05-10T15:41:53.743Z,7.63
2019-05-10T15:44:30.139Z,9.07
2019-05-10T15:46:55.872Z,9.40
2019-05-10T15:49:25.919Z,10.13
2019-05-10T15:52:15.198Z,8.63
2019-05-10T15:54:27.997Z,8.30
2019-05-10T15:56:58.072Z,8.73
2019-05-10T15:59:28.680Z,9.13
2019-05-10T16:01:59.094Z,8.80
2019-05-10T16:04:29.345Z,8.00
2019-05-10T16:06:59.434Z,8.00
2019-05-10T16:09:29.594Z,7.53
2019-05-10T16:12:01.905Z,8.30
2019-05-10T16:14:33.130Z,7.03
2019-05-10T16:17:03.690Z,8.40
2019-05-10T16:19:33.747Z,9.17
2019-05-10T16:22:03.874Z,8.53
2019-05-10T16:24:34.145Z,9.17
2019-05-10T16:27:04.327Z,9.20
2019-05-10T16:29:39.821Z,8.90
2019-05-10T16:32:07.769Z,8.60
2019-05-10T16:34:38.086Z,9.87
2019-05-10T16:37:08.163Z,10.60
2019-05-10T16:39:38.360Z,9.03
2019-05-10T16:42:08.708Z,9.90
2019-05-10T16:44:39.451Z,10.67
2019-05-10T16:47:09.523Z,10.90
2019-05-10T16:49:39.644Z,9.93
2019-05-10T16:52:09.881Z,10.17
2019-05-10T16:54:40.008Z,9.20
2019-05-10T16:57:10.391Z,10.87
2019-05-10T16:59:40.530Z,10.00
2019-05-10T17:02:11.990Z,9.27
2019-05-10T17:04:42.327Z,9.00
2019-05-10T17:07:18.497Z,9.60
2019-05-10T17:09:44.371Z,8.53
2019-05-10T17:12:14.653Z,8.87
2019-05-10T17:14:45.006Z,9.37
2019-05-10T17:17:15.169Z,8.90
2019-05-10T17:19:45.643Z,8.20
2019-05-10T17:22:15.837Z,8.33
2019-05-10T17:24:46.074Z,7.90
2019-05-10T17:27:16.466Z,8.43
2019-05-10T17:29:49.744Z,8.10
2019-05-10T17:32:24.560Z,7.60
2019-05-10T17:34:53.087Z,9.87
2019-05-10T17:37:24.075Z,9.23
2019-05-10T17:39:54.283Z,10.10
2019-05-10T17:42:25.042Z,9.17
2019-05-10T17:45:01.509Z,8.93
2019-05-10T17:47:31.946Z,8.97
2019-05-10T17:49:58.922Z,9.47
2019-05-10T17:52:29.184Z,8.80
2019-05-10T17:54:59.265Z,9.77
2019-05-10T17:57:29.824Z,9.33
2019-05-10T18:00:00.969Z,10.07
2019-05-10T18:02:31.139Z,10.07
2019-05-10T18:05:06.364Z,9.80
2019-05-10T18:07:33.051Z,9.43
2019-05-10T18:10:03.171Z,10.00
2019-05-10T18:12:33.250Z,9.67
2019-05-10T18:15:05.033Z,10.20
2019-05-10T18:17:35.365Z,9.97
2019-05-10T18:20:06.036Z,9.60
2019-05-10T18:22:42.801Z,9.10
2019-05-10T18:25:19.562Z,8.53
2019-05-10T18:27:39.727Z,10.17
2019-05-10T18:30:10.154Z,9.70
2019-05-10T18:32:40.552Z,10.60
2019-05-10T18:35:14.923Z,10.57
2019-05-10T18:37:43.771Z,9.60
2019-05-10T18:40:14.480Z,10.53
2019-05-10T18:42:44.694Z,11.23
2019-05-10T18:45:15.029Z,10.07
2019-05-10T18:47:45.215Z,11.27
2019-05-10T18:50:15.439Z,10.60
2019-05-10T18:52:45.525Z,10.77
2019-05-10T18:55:15.716Z,10.63
2019-05-10T18:57:50.768Z,11.23
2019-05-10T19:00:23.139Z,10.53
2019-05-10T19:02:55.314Z,11.47
2019-05-10T19:05:25.015Z,13.97
2019-05-10T19:08:03.092Z,15.13
2019-05-10T19:10:27.212Z,15.80
2019-05-10T19:13:01.161Z,14.40
2019-05-10T19:15:29.277Z,10.90
2019-05-10T19:17:59.378Z,12.00
2019-05-10T19:20:29.532Z,11.77
2019-05-10T19:22:59.629Z,11.53
2019-05-10T19:25:29.986Z,11.63
2019-05-10T19:28:01.287Z,12.33
2019-05-10T19:30:32.008Z,11.97
2019-05-10T19:33:02.235Z,11.47
2019-05-10T19:35:35.788Z,12.87
2019-05-10T19:38:04.846Z,12.40
2019-05-10T19:40:35.238Z,12.67
2019-05-10T19:43:05.585Z,13.13
2019-05-10T19:45:38.884Z,12.20
2019-05-10T19:48:09.031Z,12.10
2019-05-10T19:50:41.154Z,11.30
2019-05-10T19:53:11.286Z,12.00
2019-05-10T19:55:41.421Z,12.83
2019-05-10T19:58:11.784Z,14.13
2019-05-10T20:00:42.101Z,13.50
2019-05-10T20:03:14.154Z,13.33
2019-05-10T20:05:44.226Z,14.83
2019-05-10T20:08:14.621Z,13.83
2019-05-10T20:10:45.529Z,13.53
2019-05-10T20:13:15.787Z,12.93
2019-05-10T20:15:46.031Z,13.70
2019-05-10T20:18:16.445Z,14.53
2019-05-10T20:20:46.641Z,14.53
2019-05-10T20:23:16.826Z,14.70
2019-05-10T20:25:47.275Z,14.17
2019-05-10T20:28:17.631Z,14.30
2019-05-10T20:30:47.804Z,14.40
2019-05-10T20:33:17.974Z,14.77
2019-05-10T20:35:48.120Z,15.73
2019-05-10T20:38:18.219Z,15.03
2019-05-10T20:40:48.372Z,15.20
2019-05-10T20:43:18.678Z,15.83
2019-05-10T20:45:50.365Z,15.97
2019-05-10T20:48:20.479Z,15.57
2019-05-10T20:50:50.778Z,15.13
2019-05-10T20:53:20.979Z,15.10
2019-05-10T20:55:51.530Z,14.63
2019-05-10T20:58:21.709Z,14.63
2019-05-10T21:00:51.775Z,14.40
2019-05-10T21:03:23.613Z,18.07
2019-05-10T21:05:53.747Z,16.13
2019-05-10T21:08:24.046Z,15.40
2019-05-10T21:10:54.209Z,14.40
2019-05-10T21:13:26.138Z,14.00
2019-05-10T21:15:56.207Z,13.57
2019-05-10T21:18:26.492Z,13.53
2019-05-10T21:20:56.736Z,14.50
2019-05-10T21:23:27.027Z,14.00
2019-05-10T21:25:58.281Z,13.33
2019-05-10T21:28:28.745Z,14.80
2019-05-10T21:30:58.872Z,14.43
2019-05-10T21:33:29.024Z,14.70
2019-05-10T21:35:59.253Z,14.57
2019-05-10T21:38:33.106Z,14.30
2019-05-10T21:41:01.161Z,14.53
2019-05-10T21:43:31.314Z,14.33
2019-05-10T21:46:01.459Z,15.10
2019-05-10T21:48:31.782Z,15.57
2019-05-10T21:51:02.068Z,16.30
2019-05-10T21:53:32.480Z,16.23
2019-05-10T21:56:03.399Z,15.63
2019-05-10T21:58:33.458Z,15.03
2019-05-10T22:01:03.808Z,15.30
2019-05-10T22:03:33.893Z,17.00
2019-05-10T22:06:04.099Z,16.07
2019-05-10T22:08:48.346Z,16.27
2019-05-10T22:11:05.979Z,15.73
2019-05-10T22:13:37.644Z,16.17
2019-05-10T22:16:07.759Z,16.27
2019-05-10T22:18:38.494Z,16.23
2019-05-10T22:21:08.530Z,15.17
2019-05-10T22:23:38.722Z,17.10
2019-05-10T22:26:09.391Z,15.97
2019-05-10T22:28:39.823Z,16.10
2019-05-10T22:31:09.955Z,17.40
2019-05-10T22:33:40.197Z,17.00
2019-05-10T22:36:10.239Z,16.97
2019-05-10T22:38:40.551Z,16.83
2019-05-10T22:41:10.581Z,16.83
2019-05-10T22:43:40.717Z,16.27
2019-05-10T22:46:10.760Z,17.27
2019-05-10T22:48:40.892Z,17.07
2019-05-10T22:51:10.965Z,16.60
2019-05-10T22:53:41.158Z,17.17
2019-05-10T22:56:11.397Z,16.77
2019-05-10T22:58:41.618Z,17.40
2019-05-10T23:01:11.912Z,17.13
2019-05-10T23:03:42.011Z,17.17
2019-05-10T23:06:12.205Z,16.73
2019-05-10T23:08:42.343Z,17.27
2019-05-10T23:11:12.517Z,17.87
2019-05-10T23:13:42.912Z,18.50
2019-05-10T23:16:13.021Z,17.77
2019-05-10T23:18:43.174Z,17.63
2019-05-10T23:21:13.306Z,18.00
2019-05-10T23:23:43.462Z,18.20
2019-05-10T23:26:13.483Z,16.63
2019-05-10T23:28:43.712Z,17.30
2019-05-10T23:31:13.846Z,17.37
2019-05-10T23:33:43.980Z,18.03
2019-05-10T23:36:14.077Z,18.07
2019-05-10T23:38:44.488Z,18.70
2019-05-10T23:41:14.520Z,18.73
2019-05-10T23:43:44.653Z,17.80
2019-05-10T23:46:14.718Z,18.00
2019-05-10T23:48:44.867Z,17.73
2019-05-10T23:51:15.760Z,17.77
2019-05-10T23:53:45.981Z,17.80
2019-05-10T23:56:16.118Z,19.50
2019-05-10T23:58:49.560Z,18.83
